Ana Sayfa
METAR-TAF:

METAR-TAF

Havaalanları :

Frederick Municipal Airport

Frederick, Maryland, Amerika Birleşik Devletleri

Enlem: 39-25-03N, Boylam: 077-22-28W, yükseklik: 92 m

Güncel hava durumu gözlemi

Rapor saat 05:40 UTC de 28 dakika önce yapıldı.
Rüzgar batı/kuzeybatıdan 7 kt
Sıcaklık 5°C
Nem 65%
Basınç 1024 hPa
Görüş mesafesi: 11.3 km
Açık gökyüzü
hafif kar

METAR: KFDK 040540Z AUTO 30007KT 7SM -SN CLR 05/M01 A3025 RMK AO2

Saat: 01:08 (06:08 UTC)


TAF: eksik

4.000'den fazla havaalanı için hava durumu gözlemleri ve tahminleri (METAR ve TAF raporları).

Kullanılabilir istasyonlar harita üzerinde sarı ve kırmızı noktalarla gösterilir.

İstasyonun adını görmek için fareyi noktanın üzerinde gezdirin.

Sonrasında hava gözlem ve tahminlerini görmek için tıklayın.

Haritayı değiştirmek için: yaklaştırmak için siyah artı işaretli yeşil düğmeye ve uzaklaştırmak için de eksi işaretli düğmeye hızla tıklayın; bitişik haritalar için yeşil okları kullanın.


METAR-TAF: